Time;durP1;ratioP1;P1;durP2;ratioP2;P2;SDS_P1;SDS_P2;PMS_P1;PMS_P2;Temp;Humidity;BMP_temperature;BMP_pressure;BME280_temperature;BME280_humidity;BME280_pressure;Samples;Min_cycle;Max_cycle;Signal;HPM_P1;HPM_P2
2024/02/20 00:01:02;;;;;;;20.73;4.47;;;;;;;;;;5008292;28;20174;-72
2024/02/20 00:03:27;;;;;;;23.50;4.23;;;;;;;;;;5030378;28;20277;-72
2024/02/20 00:05:52;;;;;;;25.47;4.43;;;;;;;;;;5017586;28;20272;-73
2024/02/20 00:08:18;;;;;;;20.90;3.57;;;;;;;;;;5030549;28;20238;-72
2024/02/20 00:10:43;;;;;;;12.80;3.70;;;;;;;;;;5029080;28;20200;-72
2024/02/20 00:13:08;;;;;;;24.17;3.63;;;;;;;;;;5011820;28;20220;-72
2024/02/20 00:15:34;;;;;;;28.77;4.40;;;;;;;;;;5028645;28;20178;-72
2024/02/20 00:17:59;;;;;;;16.03;3.43;;;;;;;;;;5012659;28;20244;-73
2024/02/20 00:20:24;;;;;;;17.17;3.37;;;;;;;;;;5013529;28;20175;-72
2024/02/20 00:22:50;;;;;;;16.00;3.63;;;;;;;;;;5019557;28;20209;-73
2024/02/20 00:25:15;;;;;;;15.07;4.50;;;;;;;;;;5021916;28;20800;-72
2024/02/20 00:27:40;;;;;;;26.33;4.10;;;;;;;;;;5009781;28;20202;-72
2024/02/20 00:30:07;;;;;;;32.07;5.13;;;;;;;;;;5014175;28;20178;-72
2024/02/20 00:32:32;;;;;;;16.37;3.67;;;;;;;;;;5021090;28;20276;-72
2024/02/20 00:34:57;;;;;;;15.00;3.80;;;;;;;;;;5016619;28;20690;-72
2024/02/20 00:37:23;;;;;;;19.37;4.47;;;;;;;;;;5022237;28;20778;-72
2024/02/20 00:39:48;;;;;;;27.90;4.27;;;;;;;;;;5026911;28;20194;-72
2024/02/20 00:42:13;;;;;;;23.40;4.70;;;;;;;;;;5022552;28;20182;-72
2024/02/20 00:44:39;;;;;;;23.07;3.87;;;;;;;;;;5024155;28;20175;-72
2024/02/20 00:47:09;;;;;;;21.23;5.57;;;;;;;;;;5023839;28;20197;-72
2024/02/20 00:49:34;;;;;;;21.80;4.10;;;;;;;;;;5021184;28;20179;-73
2024/02/20 00:51:59;;;;;;;23.60;3.80;;;;;;;;;;5026196;28;20345;-72
2024/02/20 00:54:25;;;;;;;18.93;4.13;;;;;;;;;;5031355;28;20270;-73
2024/02/20 00:56:50;;;;;;;25.77;5.43;;;;;;;;;;5028183;28;20646;-72
2024/02/20 00:59:16;;;;;;;21.13;4.50;;;;;;;;;;5029309;28;20261;-73
2024/02/20 01:01:41;;;;;;;27.87;4.77;;;;;;;;;;5023524;28;20199;-72
2024/02/20 01:04:06;;;;;;;25.53;5.10;;;;;;;;;;5017798;28;20615;-71
2024/02/20 01:06:32;;;;;;;30.10;4.87;;;;;;;;;;5016205;28;20265;-73
2024/02/20 01:08:58;;;;;;;19.67;4.50;;;;;;;;;;5027470;28;21130;-73
2024/02/20 01:11:23;;;;;;;22.23;4.03;;;;;;;;;;5031655;28;20324;-73
2024/02/20 01:13:48;;;;;;;29.70;5.10;;;;;;;;;;5029293;28;20259;-73
2024/02/20 01:16:13;;;;;;;20.00;4.30;;;;;;;;;;5019067;28;20208;-73
2024/02/20 01:18:41;;;;;;;17.50;4.73;;;;;;;;;;5015301;28;20193;-73
2024/02/20 01:21:06;;;;;;;15.87;3.73;;;;;;;;;;5022281;28;20174;-72
2024/02/20 01:23:31;;;;;;;23.57;4.40;;;;;;;;;;5020506;28;20724;-72
2024/02/20 01:25:56;;;;;;;22.07;4.10;;;;;;;;;;5013272;28;20182;-73
2024/02/20 01:28:22;;;;;;;19.67;4.60;;;;;;;;;;5033576;28;20198;-73
2024/02/20 01:30:48;;;;;;;17.43;5.00;;;;;;;;;;5012414;28;20178;-73
2024/02/20 01:33:13;;;;;;;21.60;3.93;;;;;;;;;;5028731;28;20577;-73
2024/02/20 01:35:38;;;;;;;18.73;4.57;;;;;;;;;;5032554;28;20214;-72
2024/02/20 01:38:04;;;;;;;18.00;4.30;;;;;;;;;;5026755;28;20187;-73
2024/02/20 01:40:29;;;;;;;15.97;3.60;;;;;;;;;;5013740;28;20281;-73
2024/02/20 01:42:58;;;;;;;20.70;3.90;;;;;;;;;;5017808;28;20224;-73
2024/02/20 01:45:23;;;;;;;20.00;4.63;;;;;;;;;;5028808;28;20581;-73
2024/02/20 01:47:49;;;;;;;24.00;4.80;;;;;;;;;;5022807;28;20197;-72
2024/02/20 01:50:14;;;;;;;25.80;4.77;;;;;;;;;;5004661;28;20191;-71
2024/02/20 01:52:40;;;;;;;15.83;3.83;;;;;;;;;;5030824;28;20688;-71
2024/02/20 01:55:05;;;;;;;19.60;4.03;;;;;;;;;;5021150;28;20274;-71
2024/02/20 01:57:31;;;;;;;16.77;3.97;;;;;;;;;;5032155;28;20202;-72
2024/02/20 01:59:56;;;;;;;18.30;4.00;;;;;;;;;;5031724;28;20751;-72
2024/02/20 02:02:21;;;;;;;21.33;5.30;;;;;;;;;;5030388;28;20204;-71
2024/02/20 02:04:46;;;;;;;17.33;4.20;;;;;;;;;;5032131;28;20179;-72
2024/02/20 02:07:12;;;;;;;21.27;3.77;;;;;;;;;;5023339;28;20242;-71
2024/02/20 02:09:37;;;;;;;24.33;5.10;;;;;;;;;;5028448;28;20201;-72
2024/02/20 02:12:03;;;;;;;33.73;3.97;;;;;;;;;;5030347;28;20548;-72
2024/02/20 02:14:28;;;;;;;24.53;4.67;;;;;;;;;;5029082;28;20192;-71
2024/02/20 02:16:53;;;;;;;27.47;4.00;;;;;;;;;;5023594;28;20287;-72
2024/02/20 02:19:18;;;;;;;22.60;4.50;;;;;;;;;;5018747;28;20524;-72
2024/02/20 02:21:44;;;;;;;27.57;3.93;;;;;;;;;;5024538;28;20189;-72
2024/02/20 02:24:09;;;;;;;19.77;3.93;;;;;;;;;;5032381;28;20182;-72
2024/02/20 02:26:35;;;;;;;15.60;4.03;;;;;;;;;;5032588;28;20239;-72
2024/02/20 02:29:00;;;;;;;17.93;4.83;;;;;;;;;;5028215;28;20202;-72
2024/02/20 02:31:25;;;;;;;17.57;4.40;;;;;;;;;;5031060;28;20174;-72
2024/02/20 02:33:51;;;;;;;25.00;4.23;;;;;;;;;;5030314;28;20214;-71
2024/02/20 02:36:16;;;;;;;18.23;6.07;;;;;;;;;;5015844;28;20205;-72
2024/02/20 02:38:41;;;;;;;25.20;4.57;;;;;;;;;;5031973;28;20186;-72
2024/02/20 02:41:06;;;;;;;17.43;5.23;;;;;;;;;;5031668;28;20603;-72
2024/02/20 02:43:32;;;;;;;29.57;5.73;;;;;;;;;;5031944;28;20710;-71
2024/02/20 02:45:57;;;;;;;20.43;4.90;;;;;;;;;;5022622;28;20178;-72
2024/02/20 02:48:22;;;;;;;16.80;3.87;;;;;;;;;;5028960;28;20198;-72
2024/02/20 02:50:47;;;;;;;19.83;4.80;;;;;;;;;;5020970;28;20257;-71
2024/02/20 02:53:13;;;;;;;19.13;3.60;;;;;;;;;;5031679;28;20446;-72
2024/02/20 02:55:38;;;;;;;22.43;4.27;;;;;;;;;;5031705;28;20166;-71
2024/02/20 02:58:05;;;;;;;21.70;4.67;;;;;;;;;;5029345;22;20233;-70
2024/02/20 03:00:30;;;;;;;19.87;4.23;;;;;;;;;;5027840;28;20761;-69
2024/02/20 03:02:57;;;;;;;25.47;4.43;;;;;;;;;;5028173;28;20186;-70
2024/02/20 03:05:22;;;;;;;22.40;4.83;;;;;;;;;;5022514;28;20201;-70
2024/02/20 03:07:48;;;;;;;22.27;4.30;;;;;;;;;;5024681;28;20674;-70
2024/02/20 03:10:13;;;;;;;17.03;4.27;;;;;;;;;;5020070;28;20178;-69
2024/02/20 03:12:40;;;;;;;15.47;4.17;;;;;;;;;;5024855;28;20205;-70
2024/02/20 03:15:06;;;;;;;24.07;4.47;;;;;;;;;;5028108;28;20537;-69
2024/02/20 03:17:31;;;;;;;21.87;4.03;;;;;;;;;;5023399;28;20202;-70
2024/02/20 03:19:56;;;;;;;15.40;4.07;;;;;;;;;;5024070;28;20638;-70
2024/02/20 03:22:22;;;;;;;22.07;4.17;;;;;;;;;;5021608;28;20182;-67
2024/02/20 03:24:47;;;;;;;13.93;3.27;;;;;;;;;;5018813;28;20187;-70
2024/02/20 03:27:13;;;;;;;17.90;3.20;;;;;;;;;;5019598;28;20215;-70
2024/02/20 03:29:38;;;;;;;24.63;4.57;;;;;;;;;;5018045;28;20178;-70
2024/02/20 03:32:04;;;;;;;22.93;4.07;;;;;;;;;;5016307;28;20178;-69
2024/02/20 03:34:29;;;;;;;17.73;3.67;;;;;;;;;;5022707;28;20658;-70
2024/02/20 03:36:55;;;;;;;13.17;4.30;;;;;;;;;;5021868;28;20278;-69
2024/02/20 03:39:20;;;;;;;15.93;4.30;;;;;;;;;;5025937;28;20194;-70
2024/02/20 03:41:45;;;;;;;15.40;3.57;;;;;;;;;;5023027;28;20215;-70
2024/02/20 03:44:11;;;;;;;16.30;3.30;;;;;;;;;;5026706;28;20182;-69
2024/02/20 03:46:36;;;;;;;18.53;4.33;;;;;;;;;;5023702;28;20186;-69
2024/02/20 03:49:01;;;;;;;28.40;4.53;;;;;;;;;;5037114;28;20197;-70
2024/02/20 03:51:26;;;;;;;10.73;3.67;;;;;;;;;;5021965;28;20186;-70
2024/02/20 03:53:51;;;;;;;16.83;3.67;;;;;;;;;;5020942;28;20674;-70
2024/02/20 03:56:17;;;;;;;16.93;4.23;;;;;;;;;;5025643;28;20228;-70
2024/02/20 03:58:42;;;;;;;25.20;4.03;;;;;;;;;;5027637;28;20202;-70
2024/02/20 04:01:08;;;;;;;15.83;4.33;;;;;;;;;;5015506;28;20189;-70
2024/02/20 04:03:33;;;;;;;13.43;3.47;;;;;;;;;;5020666;28;20711;-70
2024/02/20 04:05:58;;;;;;;16.43;3.63;;;;;;;;;;5021757;28;20182;-69
2024/02/20 04:08:23;;;;;;;18.73;3.93;;;;;;;;;;5025870;28;20276;-69
2024/02/20 04:10:49;;;;;;;17.90;3.23;;;;;;;;;;5024826;28;20201;-70
2024/02/20 04:13:14;;;;;;;16.30;4.80;;;;;;;;;;5022735;28;20256;-69
2024/02/20 04:15:39;;;;;;;15.07;4.50;;;;;;;;;;5027550;28;20171;-70
2024/02/20 04:18:05;;;;;;;21.43;5.60;;;;;;;;;;5021697;28;20205;-69
2024/02/20 04:20:30;;;;;;;25.47;5.07;;;;;;;;;;5028913;28;20180;-70
2024/02/20 04:22:55;;;;;;;17.10;5.10;;;;;;;;;;5018857;28;20193;-69
2024/02/20 04:25:20;;;;;;;21.10;5.33;;;;;;;;;;5030268;28;20193;-68
2024/02/20 04:27:47;;;;;;;15.47;4.83;;;;;;;;;;5029585;28;20205;-69
2024/02/20 04:30:13;;;;;;;19.10;6.43;;;;;;;;;;5028017;28;20185;-70
2024/02/20 04:32:38;;;;;;;20.50;5.73;;;;;;;;;;5027771;28;20252;-69
2024/02/20 04:35:03;;;;;;;17.67;5.53;;;;;;;;;;5031166;28;20269;-68
2024/02/20 04:37:28;;;;;;;17.53;5.10;;;;;;;;;;5031447;28;20220;-69
2024/02/20 04:39:54;;;;;;;24.87;5.47;;;;;;;;;;5030519;28;20197;-70
2024/02/20 04:42:21;;;;;;;23.47;4.63;;;;;;;;;;5021420;28;24288;-70
2024/02/20 04:44:47;;;;;;;22.87;6.20;;;;;;;;;;5026125;28;20623;-69
2024/02/20 04:47:12;;;;;;;25.37;4.60;;;;;;;;;;5025052;28;20261;-70
2024/02/20 04:49:38;;;;;;;21.13;5.03;;;;;;;;;;5027391;28;20295;-70
2024/02/20 04:52:04;;;;;;;19.40;5.43;;;;;;;;;;5021642;28;20764;-69
2024/02/20 04:54:29;;;;;;;20.67;4.50;;;;;;;;;;5023773;28;20210;-70
2024/02/20 04:56:55;;;;;;;19.77;5.43;;;;;;;;;;5028158;28;20181;-70
2024/02/20 04:59:21;;;;;;;14.73;5.20;;;;;;;;;;5029104;28;20573;-69
2024/02/20 05:01:48;;;;;;;16.93;5.73;;;;;;;;;;5023616;28;20178;-69
2024/02/20 05:04:13;;;;;;;17.13;6.40;;;;;;;;;;5027263;28;20268;-69
2024/02/20 05:06:38;;;;;;;24.40;4.50;;;;;;;;;;5029672;28;20277;-69
2024/02/20 05:09:05;;;;;;;16.17;4.90;;;;;;;;;;5024057;28;20202;-70
2024/02/20 05:11:30;;;;;;;23.77;5.10;;;;;;;;;;5018551;28;20187;-70
2024/02/20 05:13:55;;;;;;;24.77;4.23;;;;;;;;;;5028312;28;20286;-69
2024/02/20 05:16:20;;;;;;;13.17;4.20;;;;;;;;;;5028760;28;20623;-70
2024/02/20 05:18:46;;;;;;;16.43;4.00;;;;;;;;;;5027946;28;20191;-70
2024/02/20 05:21:11;;;;;;;15.33;3.53;;;;;;;;;;5026609;28;20214;-70
2024/02/20 05:23:36;;;;;;;17.60;3.63;;;;;;;;;;5025318;28;20577;-69
2024/02/20 05:26:01;;;;;;;21.57;4.90;;;;;;;;;;5023055;28;20182;-70
2024/02/20 05:28:27;;;;;;;17.33;4.53;;;;;;;;;;5025306;28;20278;-70
2024/02/20 05:30:52;;;;;;;20.00;4.13;;;;;;;;;;5019717;28;20244;-69
2024/02/20 05:33:17;;;;;;;22.70;5.40;;;;;;;;;;5031121;28;20206;-70
2024/02/20 05:35:44;;;;;;;19.43;3.97;;;;;;;;;;5024506;28;20174;-70
2024/02/20 05:38:10;;;;;;;19.40;5.40;;;;;;;;;;5027682;28;20285;-70
2024/02/20 05:40:35;;;;;;;19.23;4.70;;;;;;;;;;5023097;28;20317;-69
2024/02/20 05:43:00;;;;;;;28.07;4.63;;;;;;;;;;5028185;28;20181;-69
2024/02/20 05:45:25;;;;;;;20.33;4.00;;;;;;;;;;5024449;28;20527;-69
2024/02/20 05:47:50;;;;;;;12.97;4.53;;;;;;;;;;5022926;28;20216;-69
2024/02/20 05:50:16;;;;;;;15.60;4.33;;;;;;;;;;5026532;28;20273;-69
2024/02/20 05:52:41;;;;;;;18.10;5.63;;;;;;;;;;5019965;28;20203;-70
2024/02/20 05:55:06;;;;;;;25.90;4.63;;;;;;;;;;5011726;28;20174;-69
2024/02/20 05:57:32;;;;;;;20.63;4.40;;;;;;;;;;5020430;28;20214;-70
2024/02/20 05:59:57;;;;;;;15.83;4.20;;;;;;;;;;5028404;28;20237;-70
2024/02/20 06:02:22;;;;;;;22.63;4.50;;;;;;;;;;5026639;28;20186;-69
2024/02/20 06:04:48;;;;;;;23.33;4.40;;;;;;;;;;5025940;28;20187;-68
2024/02/20 06:07:13;;;;;;;20.57;4.33;;;;;;;;;;5029354;28;20174;-70
2024/02/20 06:09:38;;;;;;;18.43;4.73;;;;;;;;;;5025979;28;20213;-69
2024/02/20 06:12:06;;;;;;;13.63;3.23;;;;;;;;;;5030850;28;20213;-69
2024/02/20 06:14:32;;;;;;;17.67;4.27;;;;;;;;;;5014354;28;20183;-70
2024/02/20 06:16:57;;;;;;;21.23;4.23;;;;;;;;;;5024355;28;20185;-70
2024/02/20 06:19:22;;;;;;;25.50;3.97;;;;;;;;;;5024997;28;20202;-69
2024/02/20 06:21:47;;;;;;;10.97;4.10;;;;;;;;;;5029003;28;20646;-69
2024/02/20 06:24:12;;;;;;;15.93;4.60;;;;;;;;;;5027365;28;20195;-69
2024/02/20 06:26:38;;;;;;;18.20;5.37;;;;;;;;;;5025526;28;20214;-69
2024/02/20 06:29:04;;;;;;;10.07;4.80;;;;;;;;;;5014879;28;20201;-70
2024/02/20 06:31:29;;;;;;;15.20;4.87;;;;;;;;;;5026063;28;20186;-69
2024/02/20 06:33:55;;;;;;;17.50;4.10;;;;;;;;;;5024684;28;20210;-68
2024/02/20 06:36:20;;;;;;;26.20;5.07;;;;;;;;;;5021745;28;20171;-70
2024/02/20 06:38:46;;;;;;;18.13;5.23;;;;;;;;;;5027552;28;20194;-69
2024/02/20 06:41:11;;;;;;;14.20;4.13;;;;;;;;;;5029214;28;20174;-69
2024/02/20 06:43:39;;;;;;;19.90;5.77;;;;;;;;;;5026659;28;20301;-69
2024/02/20 06:46:04;;;;;;;17.10;5.50;;;;;;;;;;5019329;28;20175;-69
2024/02/20 06:48:29;;;;;;;18.63;6.10;;;;;;;;;;5027374;28;20340;-69
2024/02/20 06:50:55;;;;;;;12.17;4.30;;;;;;;;;;5028209;28;20206;-69
2024/02/20 06:53:20;;;;;;;14.23;4.53;;;;;;;;;;5025237;28;20235;-69
2024/02/20 06:55:45;;;;;;;22.17;6.50;;;;;;;;;;5023042;28;20224;-69
2024/02/20 06:58:10;;;;;;;18.03;5.53;;;;;;;;;;5027134;28;20241;-69
2024/02/20 07:00:38;;;;;;;21.50;5.50;;;;;;;;;;5020940;28;20186;-70
2024/02/20 07:03:04;;;;;;;21.63;4.73;;;;;;;;;;5021856;28;20197;-70
2024/02/20 07:05:30;;;;;;;19.70;5.90;;;;;;;;;;5025438;28;20214;-69
2024/02/20 07:07:55;;;;;;;20.73;6.23;;;;;;;;;;5022091;28;20205;-68
2024/02/20 07:10:20;;;;;;;17.60;5.50;;;;;;;;;;5021394;28;20462;-70
2024/02/20 07:12:46;;;;;;;23.70;5.73;;;;;;;;;;5019742;28;20580;-69
2024/02/20 07:15:11;;;;;;;25.17;5.27;;;;;;;;;;5024102;28;20233;-69
2024/02/20 07:17:37;;;;;;;18.90;4.83;;;;;;;;;;5015880;28;20257;-69
2024/02/20 07:20:03;;;;;;;19.97;6.83;;;;;;;;;;5012240;28;20729;-68
2024/02/20 07:22:29;;;;;;;18.67;5.43;;;;;;;;;;5011013;28;20264;-70
2024/02/20 07:24:55;;;;;;;21.30;5.20;;;;;;;;;;5025432;28;20555;-69
2024/02/20 07:27:20;;;;;;;17.23;5.20;;;;;;;;;;5017022;28;20193;-70
2024/02/20 07:29:46;;;;;;;22.00;4.80;;;;;;;;;;5028228;28;20174;-69
2024/02/20 07:32:11;;;;;;;15.10;4.83;;;;;;;;;;5030179;28;20174;-70
2024/02/20 07:34:38;;;;;;;21.47;4.73;;;;;;;;;;5022500;28;20182;-68
2024/02/20 07:37:03;;;;;;;16.00;6.60;;;;;;;;;;5019515;28;20213;-69
2024/02/20 07:39:28;;;;;;;23.37;5.00;;;;;;;;;;5027339;28;20197;-69
2024/02/20 07:41:54;;;;;;;31.83;5.87;;;;;;;;;;5021010;28;20232;-69
2024/02/20 07:44:19;;;;;;;22.10;6.10;;;;;;;;;;5026623;28;20213;-69
2024/02/20 07:46:47;;;;;;;24.67;5.33;;;;;;;;;;5020858;28;20202;-69
2024/02/20 07:49:12;;;;;;;24.07;6.57;;;;;;;;;;5021015;28;20245;-68
2024/02/20 07:51:37;;;;;;;22.27;7.00;;;;;;;;;;5013870;28;20604;-70
2024/02/20 07:54:02;;;;;;;26.33;5.60;;;;;;;;;;5023656;28;20202;-69
2024/02/20 07:56:29;;;;;;;16.43;6.47;;;;;;;;;;5030820;28;20166;-69
2024/02/20 07:58:54;;;;;;;17.90;6.03;;;;;;;;;;5029439;28;20210;-69
2024/02/20 08:01:20;;;;;;;24.93;7.13;;;;;;;;;;5029152;28;20460;-69
2024/02/20 08:03:46;;;;;;;19.30;5.60;;;;;;;;;;5026287;28;20588;-69
2024/02/20 08:06:12;;;;;;;22.63;6.23;;;;;;;;;;5029325;28;20278;-70
2024/02/20 08:08:37;;;;;;;22.10;6.13;;;;;;;;;;5022486;28;20699;-69
2024/02/20 08:11:02;;;;;;;22.27;6.53;;;;;;;;;;5021659;28;20220;-70
2024/02/20 08:13:27;;;;;;;30.00;6.70;;;;;;;;;;5033020;28;20264;-69
2024/02/20 08:15:52;;;;;;;18.10;5.43;;;;;;;;;;5028919;28;20213;-70
2024/02/20 08:18:18;;;;;;;25.57;6.77;;;;;;;;;;5027273;28;20252;-69
2024/02/20 08:20:43;;;;;;;23.57;6.33;;;;;;;;;;5031190;28;20174;-70
2024/02/20 08:23:08;;;;;;;28.70;7.60;;;;;;;;;;5030947;28;20276;-69
2024/02/20 08:25:33;;;;;;;28.37;7.23;;;;;;;;;;5029544;28;20213;-68
2024/02/20 08:27:58;;;;;;;21.70;6.50;;;;;;;;;;5026995;28;20202;-70
2024/02/20 08:30:25;;;;;;;22.60;5.50;;;;;;;;;;5025830;28;20186;-70
2024/02/20 08:32:51;;;;;;;24.13;5.37;;;;;;;;;;5031502;28;20213;-70
2024/02/20 08:35:17;;;;;;;25.03;7.93;;;;;;;;;;5038023;28;20170;-69
2024/02/20 08:37:42;;;;;;;22.67;5.13;;;;;;;;;;5026580;28;20747;-69
2024/02/20 08:40:08;;;;;;;20.97;5.00;;;;;;;;;;5029259;28;20174;-69
2024/02/20 08:42:33;;;;;;;16.20;6.13;;;;;;;;;;5030429;28;20675;-70
2024/02/20 08:44:58;;;;;;;15.17;4.37;;;;;;;;;;5026694;28;20182;-70
2024/02/20 08:47:23;;;;;;;27.60;6.03;;;;;;;;;;5022706;28;20627;-69
2024/02/20 08:49:50;;;;;;;15.87;6.17;;;;;;;;;;5023495;28;20184;-71
2024/02/20 08:52:15;;;;;;;20.03;6.70;;;;;;;;;;5028913;28;20198;-70
2024/02/20 08:54:40;;;;;;;15.87;4.60;;;;;;;;;;5029807;28;20222;-70
2024/02/20 08:57:05;;;;;;;21.90;5.47;;;;;;;;;;5030521;28;20174;-70
2024/02/20 08:59:30;;;;;;;22.47;5.23;;;;;;;;;;5024578;28;20182;-70
2024/02/20 09:01:56;;;;;;;23.87;4.50;;;;;;;;;;5029124;28;20194;-70
2024/02/20 09:04:26;;;;;;;29.20;5.80;;;;;;;;;;5030978;28;20221;-71
2024/02/20 09:06:51;;;;;;;17.90;4.83;;;;;;;;;;5023623;28;20618;-70
2024/02/20 09:09:17;;;;;;;19.63;4.70;;;;;;;;;;5019354;28;20350;-70
2024/02/20 09:11:42;;;;;;;25.87;6.23;;;;;;;;;;5025714;28;20190;-69
2024/02/20 09:14:07;;;;;;;15.70;4.10;;;;;;;;;;5036213;28;20740;-70
2024/02/20 09:16:32;;;;;;;22.70;5.70;;;;;;;;;;5034435;28;20174;-69
2024/02/20 09:18:59;;;;;;;27.47;5.80;;;;;;;;;;5033076;28;21316;-71
2024/02/20 09:21:25;;;;;;;19.20;5.00;;;;;;;;;;5030687;28;20182;-70
2024/02/20 09:23:50;;;;;;;20.57;4.63;;;;;;;;;;5028755;28;20190;-70
2024/02/20 09:26:15;;;;;;;23.33;5.17;;;;;;;;;;5033082;28;20190;-69
2024/02/20 09:28:40;;;;;;;18.93;4.83;;;;;;;;;;5028504;28;20195;-70
2024/02/20 09:31:06;;;;;;;20.43;7.13;;;;;;;;;;5013856;28;20187;-70
2024/02/20 09:33:32;;;;;;;17.70;4.40;;;;;;;;;;5034585;28;20298;-70
2024/02/20 09:35:57;;;;;;;18.80;4.73;;;;;;;;;;5034492;28;20186;-70
2024/02/20 09:38:23;;;;;;;11.83;3.60;;;;;;;;;;5029609;28;20293;-70
2024/02/20 09:40:49;;;;;;;18.13;5.20;;;;;;;;;;5029617;28;20254;-70
2024/02/20 09:43:15;;;;;;;20.83;4.60;;;;;;;;;;5032398;28;20182;-69
2024/02/20 09:45:41;;;;;;;13.17;4.47;;;;;;;;;;5028931;28;20239;-70
2024/02/20 09:48:07;;;;;;;16.73;5.37;;;;;;;;;;5024735;28;20640;-70
2024/02/20 09:50:33;;;;;;;22.37;5.07;;;;;;;;;;5031752;28;20187;-70
2024/02/20 09:52:58;;;;;;;26.10;6.03;;;;;;;;;;5033824;28;20263;-70
2024/02/20 09:55:24;;;;;;;15.83;4.17;;;;;;;;;;5034062;28;20583;-70
2024/02/20 09:57:50;;;;;;;19.20;5.63;;;;;;;;;;5033891;28;20206;-70
2024/02/20 10:00:16;;;;;;;22.38;5.30;;;;;;;;;;5033042;28;20654;-70
2024/02/20 10:02:43;;;;;;;17.93;5.90;;;;;;;;;;5026641;28;20219;-70
2024/02/20 10:05:12;;;;;;;17.27;6.13;;;;;;;;;;5031843;28;20261;-69
2024/02/20 10:07:40;;;;;;;15.98;5.50;;;;;;;;;;5033395;28;20202;-70
2024/02/20 10:10:07;;;;;;;15.40;5.07;;;;;;;;;;5027128;28;20175;-70
2024/02/20 10:12:36;;;;;;;23.25;5.78;;;;;;;;;;5033065;28;20210;-71
2024/02/20 10:15:08;;;;;;;22.98;5.47;;;;;;;;;;5034163;28;20626;-70
2024/02/20 10:17:34;;;;;;;19.70;3.97;;;;;;;;;;5033570;28;20244;-69
2024/02/20 10:20:05;;;;;;;20.40;5.05;;;;;;;;;;5023166;28;20474;-70
2024/02/20 10:22:30;;;;;;;17.85;5.13;;;;;;;;;;5025321;28;20213;-70
2024/02/20 10:25:03;;;;;;;13.90;4.20;;;;;;;;;;5032424;28;20178;-70
2024/02/20 10:27:28;;;;;;;15.48;5.47;;;;;;;;;;5031949;28;20765;-70
2024/02/20 10:29:53;;;;;;;21.23;5.75;;;;;;;;;;5028202;28;20257;-70
2024/02/20 10:32:22;;;;;;;21.05;4.60;;;;;;;;;;5027187;28;20186;-69
2024/02/20 10:34:57;;;;;;;23.67;5.75;;;;;;;;;;5032458;28;20345;-70
2024/02/20 10:37:26;;;;;;;20.17;5.60;;;;;;;;;;5029717;28;20198;-70
2024/02/20 10:39:51;;;;;;;18.50;4.72;;;;;;;;;;5030119;28;20704;-70
2024/02/20 10:42:17;;;;;;;15.38;5.45;;;;;;;;;;5032765;28;20489;-69
2024/02/20 10:44:42;;;;;;;14.75;5.13;;;;;;;;;;5027038;28;20218;-70
2024/02/20 10:47:08;;;;;;;21.40;6.90;;;;;;;;;;5027488;28;20174;-70
2024/02/20 10:49:34;;;;;;;19.83;7.05;;;;;;;;;;5025565;28;20261;-68
2024/02/20 10:52:01;;;;;;;26.35;5.32;;;;;;;;;;5029419;28;20236;-69
2024/02/20 10:54:29;;;;;;;21.45;5.65;;;;;;;;;;5028808;28;20194;-69
2024/02/20 10:56:54;;;;;;;20.83;6.35;;;;;;;;;;5025387;28;20184;-70
2024/02/20 10:59:20;;;;;;;25.48;5.70;;;;;;;;;;5032279;28;20206;-69
2024/02/20 11:01:46;;;;;;;15.52;5.22;;;;;;;;;;5029819;28;20182;-68
2024/02/20 11:04:11;;;;;;;22.40;5.65;;;;;;;;;;5019882;28;20186;-70
2024/02/20 11:06:37;;;;;;;17.25;5.75;;;;;;;;;;5025411;28;20192;-69
2024/02/20 11:09:13;;;;;;;20.67;5.85;;;;;;;;;;5029504;28;20210;-69
2024/02/20 11:11:38;;;;;;;15.70;5.53;;;;;;;;;;5028469;28;20186;-70
2024/02/20 11:14:03;;;;;;;12.50;5.28;;;;;;;;;;5031845;28;20209;-70
2024/02/20 11:16:36;;;;;;;17.42;5.50;;;;;;;;;;5026765;28;20175;-70
2024/02/20 11:19:01;;;;;;;18.13;4.57;;;;;;;;;;5032447;28;20574;-69
2024/02/20 11:21:30;;;;;;;18.23;4.97;;;;;;;;;;5023719;28;20179;-70
2024/02/20 11:23:55;;;;;;;19.23;5.93;;;;;;;;;;5027317;28;20758;-70
2024/02/20 11:26:27;;;;;;;12.80;5.03;;;;;;;;;;5024545;28;20183;-70
2024/02/20 11:28:56;;;;;;;15.95;5.78;;;;;;;;;;5030671;28;20289;-70
2024/02/20 11:31:26;;;;;;;17.30;5.13;;;;;;;;;;5026003;28;20192;-70
2024/02/20 11:33:51;;;;;;;21.27;6.43;;;;;;;;;;5020123;28;20226;-70
2024/02/20 11:36:17;;;;;;;18.80;5.03;;;;;;;;;;5029652;28;20642;-70
2024/02/20 11:38:42;;;;;;;19.75;5.03;;;;;;;;;;5032321;28;20198;-70
2024/02/20 11:41:07;;;;;;;11.77;4.88;;;;;;;;;;5030502;28;20181;-71
2024/02/20 11:43:32;;;;;;;16.10;5.00;;;;;;;;;;5031541;28;20175;-69
2024/02/20 11:45:59;;;;;;;26.05;6.15;;;;;;;;;;5027585;28;20217;-70
2024/02/20 11:48:24;;;;;;;15.57;4.13;;;;;;;;;;5031083;28;20196;-69
2024/02/20 11:50:54;;;;;;;18.15;4.13;;;;;;;;;;5020335;28;20190;-70
2024/02/20 11:53:19;;;;;;;14.73;3.95;;;;;;;;;;5019913;28;20260;-69
2024/02/20 11:55:46;;;;;;;13.13;4.60;;;;;;;;;;5028538;28;20202;-70
2024/02/20 11:58:15;;;;;;;10.95;3.75;;;;;;;;;;5024674;28;20214;-70
2024/02/20 12:00:41;;;;;;;16.83;3.72;;;;;;;;;;5022747;28;20228;-70
2024/02/20 12:03:07;;;;;;;18.13;4.90;;;;;;;;;;5027405;28;20182;-70
2024/02/20 12:05:43;;;;;;;14.63;4.25;;;;;;;;;;5019089;28;20642;-70
2024/02/20 12:08:16;;;;;;;13.10;4.63;;;;;;;;;;5019380;28;20221;-70
2024/02/20 12:10:41;;;;;;;12.23;3.53;;;;;;;;;;5021080;28;20647;-70
2024/02/20 12:13:20;;;;;;;16.65;4.00;;;;;;;;;;5029103;28;20281;-70
2024/02/20 12:15:49;;;;;;;16.10;5.35;;;;;;;;;;5024145;28;20179;-70
2024/02/20 12:18:28;;;;;;;12.95;4.18;;;;;;;;;;5028711;28;20198;-69
2024/02/20 12:21:06;;;;;;;14.43;4.63;;;;;;;;;;5021896;28;20199;-69
2024/02/20 12:23:31;;;;;;;15.88;3.90;;;;;;;;;;5024625;28;20177;-70
2024/02/20 12:26:09;;;;;;;16.35;3.80;;;;;;;;;;5024427;28;20668;-69
2024/02/20 12:28:35;;;;;;;12.55;3.40;;;;;;;;;;5023807;28;20202;-67
2024/02/20 12:31:01;;;;;;;15.48;3.28;;;;;;;;;;5024156;28;20260;-68
2024/02/20 12:33:26;;;;;;;9.93;3.25;;;;;;;;;;5020239;28;20226;-68
2024/02/20 12:35:54;;;;;;;10.80;2.88;;;;;;;;;;5027245;28;20178;-68
2024/02/20 12:38:19;;;;;;;9.60;2.72;;;;;;;;;;5025025;28;20448;-70
2024/02/20 12:40:44;;;;;;;14.27;4.35;;;;;;;;;;5027725;28;20179;-68
2024/02/20 12:43:10;;;;;;;14.88;3.33;;;;;;;;;;5023043;28;20551;-69
2024/02/20 12:45:35;;;;;;;15.27;3.97;;;;;;;;;;5020923;28;20179;-69
2024/02/20 12:48:01;;;;;;;12.65;4.22;;;;;;;;;;5030412;28;20275;-68
2024/02/20 12:50:26;;;;;;;16.75;4.35;;;;;;;;;;5027193;28;20183;-68
2024/02/20 12:52:52;;;;;;;16.38;3.80;;;;;;;;;;5020974;28;20269;-69
2024/02/20 12:55:17;;;;;;;17.05;4.30;;;;;;;;;;5023468;28;20670;-69
2024/02/20 12:57:42;;;;;;;15.48;4.38;;;;;;;;;;5024877;28;20232;-68
2024/02/20 13:00:09;;;;;;;16.15;4.38;;;;;;;;;;5025377;28;20182;-69
2024/02/20 13:02:34;;;;;;;17.67;4.15;;;;;;;;;;5024472;28;20171;-69
2024/02/20 13:05:00;;;;;;;15.05;4.38;;;;;;;;;;5026151;28;20174;-68
2024/02/20 13:07:25;;;;;;;15.48;4.55;;;;;;;;;;5025545;28;20202;-69
2024/02/20 13:09:51;;;;;;;20.23;5.55;;;;;;;;;;5026538;28;20198;-69
2024/02/20 13:12:17;;;;;;;11.63;3.65;;;;;;;;;;5021110;28;20273;-69
2024/02/20 13:14:47;;;;;;;17.38;5.22;;;;;;;;;;5028891;28;20218;-69
2024/02/20 13:17:12;;;;;;;24.35;4.97;;;;;;;;;;5024833;28;20180;-68
2024/02/20 13:19:37;;;;;;;16.17;4.20;;;;;;;;;;5022932;28;20191;-68
2024/02/20 13:22:03;;;;;;;18.05;4.60;;;;;;;;;;5022671;28;20209;-69
2024/02/20 13:24:28;;;;;;;21.50;5.53;;;;;;;;;;5026497;28;20194;-69
2024/02/20 13:26:53;;;;;;;17.05;4.95;;;;;;;;;;5024413;28;20186;-69
2024/02/20 13:29:18;;;;;;;16.02;4.93;;;;;;;;;;5021316;28;20332;-69
2024/02/20 13:31:43;;;;;;;13.10;4.43;;;;;;;;;;5025374;28;20216;-69
2024/02/20 13:34:10;;;;;;;16.25;4.90;;;;;;;;;;5021836;28;20203;-69
2024/02/20 13:36:35;;;;;;;15.15;4.45;;;;;;;;;;5025264;28;20167;-69
2024/02/20 13:39:01;;;;;;;14.13;5.57;;;;;;;;;;5024126;28;20200;-69
2024/02/20 13:41:28;;;;;;;24.73;6.22;;;;;;;;;;5023972;28;20677;-69
2024/02/20 13:43:53;;;;;;;12.25;5.22;;;;;;;;;;5022376;28;20672;-69
2024/02/20 13:46:18;;;;;;;18.20;6.45;;;;;;;;;;5022497;28;20192;-69
2024/02/20 13:48:44;;;;;;;19.20;5.80;;;;;;;;;;5023964;28;20294;-69
2024/02/20 13:51:09;;;;;;;16.80;6.03;;;;;;;;;;5018230;28;20708;-69
2024/02/20 13:53:34;;;;;;;16.05;5.72;;;;;;;;;;5024117;28;20243;-69
2024/02/20 13:55:59;;;;;;;15.52;6.15;;;;;;;;;;5027271;28;20175;-69
2024/02/20 13:58:26;;;;;;;18.60;5.78;;;;;;;;;;5025288;28;20636;-69
2024/02/20 14:00:52;;;;;;;24.73;6.72;;;;;;;;;;5028181;28;20174;-68
2024/02/20 14:03:20;;;;;;;21.17;6.97;;;;;;;;;;5022159;28;20199;-69
2024/02/20 14:05:45;;;;;;;20.92;7.47;;;;;;;;;;5026984;28;20174;-70
2024/02/20 14:08:11;;;;;;;21.45;7.70;;;;;;;;;;5024463;28;20199;-69
2024/02/20 14:10:36;;;;;;;16.98;8.48;;;;;;;;;;5024754;28;20190;-68
2024/02/20 14:13:04;;;;;;;21.65;8.70;;;;;;;;;;5020407;28;20479;-69
2024/02/20 14:15:30;;;;;;;18.75;8.02;;;;;;;;;;5031239;28;20178;-69
2024/02/20 14:17:55;;;;;;;20.58;9.48;;;;;;;;;;5024002;28;20251;-69
2024/02/20 14:20:22;;;;;;;19.08;8.90;;;;;;;;;;5025756;28;20178;-69
2024/02/20 14:22:47;;;;;;;15.20;9.07;;;;;;;;;;5025456;28;20539;-69